Terminal Aerodrome Forecast
Issued by NWS

Home | Current Version | Previous Version | Text Only | Print | Product List | Glossary On
Versions: 1 2 3 4 5 6 7 8 9 10 11 12 13 14 15 16 17 18 19
000
FTAK31 PAFA 300520
TAFABT
TAF
PABT 300520Z 3006/3106 00000KT 1 1/2SM -SN BR OVC030
      TEMPO 3006/3009 3/4SM -SN BR
     FM301600 03002KT 4SM -SN OVC025
     FM310300 06002KT 6SM BR OVC050=

USA.gov is the U.S. government's official web portal to all federal, state and local government web resources and services.